Time;durP1;ratioP1;P1;durP2;ratioP2;P2;SDS_P1;SDS_P2;PMS_P1;PMS_P2;Temp;Humidity;BMP_temperature;BMP_pressure;BME280_temperature;BME280_humidity;BME280_pressure;Samples;Min_cycle;Max_cycle;Signal;HPM_P1;HPM_P2
2022/04/15 00:01:37;;;;;;;14.63;8.35;;;;;;;;;;5099945;28;20502;-62
2022/04/15 00:04:03;;;;;;;12.88;8.68;;;;;;;;;;5107854;28;20035;-62
2022/04/15 00:06:29;;;;;;;19.77;9.45;;;;;;;;;;5104323;28;20046;-62
2022/04/15 00:08:55;;;;;;;17.90;9.15;;;;;;;;;;5076689;28;20085;-62
2022/04/15 00:11:21;;;;;;;18.10;9.25;;;;;;;;;;5101800;28;20032;-62
2022/04/15 00:13:47;;;;;;;16.67;9.10;;;;;;;;;;5111538;28;20469;-62
2022/04/15 00:16:14;;;;;;;14.20;8.70;;;;;;;;;;5099904;28;20047;-63
2022/04/15 00:18:41;;;;;;;14.55;8.23;;;;;;;;;;5111148;28;20040;-62
2022/04/15 00:21:07;;;;;;;13.23;8.38;;;;;;;;;;5103375;28;20044;-62
2022/04/15 00:23:34;;;;;;;12.98;8.30;;;;;;;;;;5111848;28;20419;-62
2022/04/15 00:26:00;;;;;;;12.45;8.73;;;;;;;;;;5094145;28;20036;-62
2022/04/15 00:28:26;;;;;;;13.85;8.90;;;;;;;;;;5111035;28;20566;-63
2022/04/15 00:30:53;;;;;;;13.43;8.13;;;;;;;;;;5090763;22;1023434;-63
2022/04/15 00:33:19;;;;;;;14.55;7.90;;;;;;;;;;5111794;28;20458;-63
2022/04/15 00:35:45;;;;;;;15.50;8.85;;;;;;;;;;5110460;28;20088;-63
2022/04/15 00:38:11;;;;;;;15.48;8.13;;;;;;;;;;5111333;28;20080;-63
2022/04/15 00:40:37;;;;;;;10.90;7.40;;;;;;;;;;5097631;28;20032;-63
2022/04/15 00:43:03;;;;;;;14.63;7.78;;;;;;;;;;5066348;28;20050;-63
2022/04/15 00:45:29;;;;;;;15.23;8.52;;;;;;;;;;5103050;28;20061;-63
2022/04/15 00:47:59;;;;;;;12.40;8.25;;;;;;;;;;5108784;28;20036;-63
2022/04/15 00:50:29;;;;;;;14.00;8.30;;;;;;;;;;5068421;28;20047;-63
2022/04/15 00:52:58;;;;;;;13.73;8.15;;;;;;;;;;5098250;28;20032;-63
2022/04/15 00:55:25;;;;;;;14.15;8.27;;;;;;;;;;5101564;28;20043;-63
2022/04/15 00:57:58;;;;;;;12.43;8.18;;;;;;;;;;5106700;28;20036;-63
2022/04/15 01:00:25;;;;;;;14.10;7.82;;;;;;;;;;5089944;28;20189;-63
2022/04/15 01:02:52;;;;;;;14.13;7.93;;;;;;;;;;5081481;28;20036;-63
2022/04/15 01:05:18;;;;;;;10.02;7.40;;;;;;;;;;5106049;28;20050;-63
2022/04/15 01:07:48;;;;;;;12.10;6.85;;;;;;;;;;5097935;28;20058;-63
2022/04/15 01:10:15;;;;;;;11.60;7.60;;;;;;;;;;5098086;28;20070;-62
2022/04/15 01:12:45;;;;;;;12.60;7.55;;;;;;;;;;5080544;28;20517;-63
2022/04/15 01:15:13;;;;;;;13.15;7.93;;;;;;;;;;5105085;28;20036;-63
2022/04/15 01:17:39;;;;;;;11.45;7.47;;;;;;;;;;5104786;28;20153;-63
2022/04/15 01:20:07;;;;;;;12.45;7.80;;;;;;;;;;5094598;28;20048;-62
2022/04/15 01:22:37;;;;;;;12.52;7.88;;;;;;;;;;5090746;28;20044;-63
2022/04/15 01:25:04;;;;;;;12.95;7.32;;;;;;;;;;5094074;28;20093;-63
2022/04/15 01:27:33;;;;;;;12.18;7.63;;;;;;;;;;5103790;28;20040;-63
2022/04/15 01:29:59;;;;;;;11.32;7.78;;;;;;;;;;5090983;28;20040;-63
2022/04/15 01:32:25;;;;;;;10.93;7.50;;;;;;;;;;5090337;28;20481;-62
2022/04/15 01:34:51;;;;;;;13.73;7.85;;;;;;;;;;5106551;28;20036;-63
2022/04/15 01:37:20;;;;;;;13.98;7.70;;;;;;;;;;5093145;28;20044;-63
2022/04/15 01:39:47;;;;;;;14.80;8.65;;;;;;;;;;5076771;28;20050;-63
2022/04/15 01:42:16;;;;;;;17.05;8.40;;;;;;;;;;5086586;28;20028;-62
2022/04/15 01:44:43;;;;;;;16.05;7.72;;;;;;;;;;5091969;28;20040;-63
2022/04/15 01:47:09;;;;;;;13.38;8.27;;;;;;;;;;5092321;28;20090;-62
2022/04/15 01:49:35;;;;;;;13.00;7.72;;;;;;;;;;5093346;28;20443;-62
2022/04/15 01:52:01;;;;;;;17.17;8.77;;;;;;;;;;5101195;28;20028;-63
2022/04/15 01:54:28;;;;;;;11.60;7.72;;;;;;;;;;5096244;28;20031;-63
2022/04/15 01:56:54;;;;;;;11.57;7.97;;;;;;;;;;5105059;28;20085;-62
2022/04/15 01:59:20;;;;;;;14.32;8.80;;;;;;;;;;5109645;28;20081;-63
2022/04/15 02:01:46;;;;;;;14.07;8.55;;;;;;;;;;5086016;28;20036;-63
2022/04/15 02:04:12;;;;;;;14.18;8.63;;;;;;;;;;5097617;28;20036;-63
2022/04/15 02:06:38;;;;;;;13.35;8.40;;;;;;;;;;5098237;28;20044;-63
2022/04/15 02:09:04;;;;;;;14.25;9.13;;;;;;;;;;5107115;28;20050;-63
2022/04/15 02:11:30;;;;;;;14.25;8.77;;;;;;;;;;5099056;28;20031;-63
2022/04/15 02:13:56;;;;;;;13.73;8.52;;;;;;;;;;5081133;28;20504;-62
2022/04/15 02:16:22;;;;;;;19.30;8.95;;;;;;;;;;5080001;28;20040;-63
2022/04/15 02:18:48;;;;;;;12.93;8.27;;;;;;;;;;5108435;28;20032;-63
2022/04/15 02:21:14;;;;;;;13.50;7.78;;;;;;;;;;5081181;28;20048;-63
2022/04/15 02:23:40;;;;;;;16.08;8.77;;;;;;;;;;5078177;28;20123;-63
2022/04/15 02:26:06;;;;;;;15.55;8.43;;;;;;;;;;5086033;28;20040;-63
2022/04/15 02:28:32;;;;;;;16.02;9.13;;;;;;;;;;5093675;28;20126;-63
2022/04/15 02:30:58;;;;;;;18.40;9.55;;;;;;;;;;5078683;28;20448;-62
2022/04/15 02:33:24;;;;;;;16.10;8.18;;;;;;;;;;5081255;28;20046;-63
2022/04/15 02:35:49;;;;;;;14.95;8.43;;;;;;;;;;5092847;28;20031;-62
2022/04/15 02:38:16;;;;;;;14.85;7.90;;;;;;;;;;5093701;28;20048;-63
2022/04/15 02:40:42;;;;;;;16.42;8.13;;;;;;;;;;5104870;28;20035;-63
2022/04/15 02:43:08;;;;;;;13.73;8.45;;;;;;;;;;5096545;28;20032;-63
2022/04/15 02:45:34;;;;;;;15.13;8.95;;;;;;;;;;5094458;28;20093;-62
2022/04/15 02:48:00;;;;;;;15.32;8.55;;;;;;;;;;5093905;28;20040;-63
2022/04/15 02:50:27;;;;;;;12.10;7.57;;;;;;;;;;5100059;28;20139;-62
2022/04/15 02:52:53;;;;;;;16.75;8.88;;;;;;;;;;5092587;28;20276;-63
2022/04/15 02:55:19;;;;;;;12.93;8.43;;;;;;;;;;5094109;28;20031;-63
2022/04/15 02:57:45;;;;;;;15.32;8.30;;;;;;;;;;5089372;28;20034;-63
2022/04/15 03:00:12;;;;;;;14.60;8.43;;;;;;;;;;5094634;28;20036;-63
2022/04/15 03:02:39;;;;;;;16.83;9.43;;;;;;;;;;5092562;28;20101;-63
2022/04/15 03:05:06;;;;;;;15.20;8.48;;;;;;;;;;5093640;28;20036;-63
2022/04/15 03:07:33;;;;;;;16.48;9.27;;;;;;;;;;5086249;28;20035;-62
2022/04/15 03:09:59;;;;;;;18.40;9.07;;;;;;;;;;5097041;28;20050;-63
2022/04/15 03:12:25;;;;;;;16.83;9.13;;;;;;;;;;5098258;28;20032;-62
2022/04/15 03:14:51;;;;;;;14.43;8.68;;;;;;;;;;5103109;28;20107;-63
2022/04/15 03:17:17;;;;;;;19.05;9.52;;;;;;;;;;5103907;28;20077;-63
2022/04/15 03:19:43;;;;;;;13.85;9.18;;;;;;;;;;5076046;28;20036;-63
2022/04/15 03:22:09;;;;;;;14.05;9.07;;;;;;;;;;5092955;28;20440;-63
2022/04/15 03:24:35;;;;;;;16.15;9.00;;;;;;;;;;5073197;28;20086;-63
2022/04/15 03:27:01;;;;;;;14.80;9.25;;;;;;;;;;5085336;28;20036;-63
2022/04/15 03:29:27;;;;;;;15.48;8.85;;;;;;;;;;5090842;28;20115;-62
2022/04/15 03:31:53;;;;;;;14.55;9.27;;;;;;;;;;5092546;28;20032;-63
2022/04/15 03:34:19;;;;;;;14.68;8.85;;;;;;;;;;5073391;28;20040;-63
2022/04/15 03:36:45;;;;;;;15.60;9.10;;;;;;;;;;5099939;28;20489;-63
2022/04/15 03:39:11;;;;;;;19.92;8.48;;;;;;;;;;5095202;28;20040;-63
2022/04/15 03:41:37;;;;;;;18.08;8.63;;;;;;;;;;5100475;28;20043;-63
2022/04/15 03:44:04;;;;;;;17.85;8.85;;;;;;;;;;5095665;28;20059;-64
2022/04/15 03:46:31;;;;;;;13.45;8.73;;;;;;;;;;5089994;28;20032;-62
2022/04/15 03:48:57;;;;;;;16.58;8.60;;;;;;;;;;5090932;28;20545;-62
2022/04/15 03:51:23;;;;;;;17.73;8.75;;;;;;;;;;5092484;28;20082;-62
2022/04/15 03:53:48;;;;;;;14.68;8.65;;;;;;;;;;5089408;28;20063;-62
2022/04/15 03:56:14;;;;;;;16.67;8.95;;;;;;;;;;5088160;28;20050;-62
2022/04/15 03:58:40;;;;;;;16.00;8.80;;;;;;;;;;5088361;28;20689;-63
2022/04/15 04:01:06;;;;;;;14.98;8.75;;;;;;;;;;5080200;28;20036;-63
2022/04/15 04:03:32;;;;;;;14.95;8.48;;;;;;;;;;5065761;28;20083;-63
2022/04/15 04:05:58;;;;;;;16.50;9.18;;;;;;;;;;5080716;28;20073;-62
2022/04/15 04:08:24;;;;;;;16.25;9.07;;;;;;;;;;5090400;28;20045;-63
2022/04/15 04:10:50;;;;;;;12.82;8.70;;;;;;;;;;5102178;28;20032;-63
2022/04/15 04:13:16;;;;;;;17.42;9.57;;;;;;;;;;5088728;28;20032;-62
2022/04/15 04:15:42;;;;;;;18.67;8.65;;;;;;;;;;5096278;28;20127;-62
2022/04/15 04:18:10;;;;;;;14.25;8.85;;;;;;;;;;5098109;28;20036;-63
2022/04/15 04:20:36;;;;;;;16.20;9.27;;;;;;;;;;5092086;28;20040;-62
2022/04/15 04:23:02;;;;;;;16.42;8.95;;;;;;;;;;5080147;28;20149;-62
2022/04/15 04:25:28;;;;;;;16.70;8.63;;;;;;;;;;5102033;28;20369;-63
2022/04/15 04:27:54;;;;;;;15.50;9.02;;;;;;;;;;5098414;28;20117;-63
2022/04/15 04:30:20;;;;;;;15.15;8.95;;;;;;;;;;5089071;28;20570;-62
2022/04/15 04:32:49;;;;;;;17.80;8.65;;;;;;;;;;5080742;28;20118;-63
2022/04/15 04:35:16;;;;;;;17.23;9.00;;;;;;;;;;5091413;28;20048;-62
2022/04/15 04:37:43;;;;;;;13.98;9.15;;;;;;;;;;5094697;28;20176;-63
2022/04/15 04:40:09;;;;;;;14.10;8.65;;;;;;;;;;5076988;28;20072;-62
2022/04/15 04:42:35;;;;;;;15.88;8.98;;;;;;;;;;5083691;28;20435;-62
2022/04/15 04:45:01;;;;;;;16.23;9.23;;;;;;;;;;5071172;28;20038;-62
2022/04/15 04:47:29;;;;;;;16.60;9.48;;;;;;;;;;5093409;28;20067;-62
2022/04/15 04:49:55;;;;;;;15.45;9.02;;;;;;;;;;5076319;28;20126;-63
2022/04/15 04:52:23;;;;;;;17.80;9.27;;;;;;;;;;5090876;28;20056;-62
2022/04/15 04:54:49;;;;;;;13.55;8.55;;;;;;;;;;5087854;28;20028;-63
2022/04/15 04:57:15;;;;;;;16.02;8.60;;;;;;;;;;5091413;28;20039;-62
2022/04/15 04:59:41;;;;;;;17.10;8.80;;;;;;;;;;5084436;28;20047;-62
2022/04/15 05:02:10;;;;;;;16.13;8.65;;;;;;;;;;5076842;28;20055;-63
2022/04/15 05:04:36;;;;;;;18.67;9.00;;;;;;;;;;5088010;28;20040;-62
2022/04/15 05:07:02;;;;;;;12.45;8.52;;;;;;;;;;5078385;28;20071;-63
2022/04/15 05:09:28;;;;;;;10.95;7.90;;;;;;;;;;5085195;28;20068;-62
2022/04/15 05:11:55;;;;;;;13.73;8.95;;;;;;;;;;5087851;28;20042;-63
2022/04/15 05:14:21;;;;;;;17.40;9.40;;;;;;;;;;5081864;28;20044;-62
2022/04/15 05:16:47;;;;;;;12.75;7.40;;;;;;;;;;5075880;28;20401;-62
2022/04/15 05:19:13;;;;;;;11.95;8.45;;;;;;;;;;5095392;28;20406;-62
2022/04/15 05:21:40;;;;;;;16.33;8.52;;;;;;;;;;5093067;28;20040;-63
2022/04/15 05:24:07;;;;;;;17.77;9.40;;;;;;;;;;5104654;28;20688;-63
2022/04/15 05:26:33;;;;;;;16.77;9.38;;;;;;;;;;5090039;28;20055;-62
2022/04/15 05:29:00;;;;;;;14.02;9.18;;;;;;;;;;5082677;28;20049;-63
2022/04/15 05:31:25;;;;;;;15.13;9.00;;;;;;;;;;5071617;28;20032;-62
2022/04/15 05:33:52;;;;;;;13.15;8.43;;;;;;;;;;5078638;28;20394;-62
2022/04/15 05:36:17;;;;;;;11.85;7.70;;;;;;;;;;5082489;28;20047;-62
2022/04/15 05:38:43;;;;;;;9.82;6.78;;;;;;;;;;5085598;28;20032;-63
2022/04/15 05:41:09;;;;;;;12.02;8.15;;;;;;;;;;5092711;28;20077;-62
2022/04/15 05:43:37;;;;;;;11.93;7.45;;;;;;;;;;5093145;28;20045;-62
2022/04/15 05:46:03;;;;;;;11.20;7.90;;;;;;;;;;5067700;28;20558;-62
2022/04/15 05:48:29;;;;;;;10.18;7.55;;;;;;;;;;5090074;28;20036;-62
2022/04/15 05:50:55;;;;;;;12.07;7.07;;;;;;;;;;5090223;28;20539;-62
2022/04/15 05:53:21;;;;;;;10.38;6.68;;;;;;;;;;5085248;28;20028;-62
2022/04/15 05:55:47;;;;;;;10.95;7.25;;;;;;;;;;5104837;28;20032;-62
2022/04/15 05:58:13;;;;;;;9.15;6.35;;;;;;;;;;5088565;28;20404;-62
2022/04/15 06:00:39;;;;;;;10.38;7.35;;;;;;;;;;5080936;28;20040;-62
2022/04/15 06:03:09;;;;;;;9.85;6.60;;;;;;;;;;5067558;28;20508;-62
2022/04/15 06:05:35;;;;;;;9.23;6.55;;;;;;;;;;5103733;28;20075;-62
2022/04/15 06:08:01;;;;;;;10.10;6.93;;;;;;;;;;5082783;28;20489;-62
2022/04/15 06:10:27;;;;;;;10.55;6.55;;;;;;;;;;5091918;28;20086;-62
2022/04/15 06:13:09;;;;;;;10.63;6.20;;;;;;;;;;5067738;28;20120;-62
2022/04/15 06:15:36;;;;;;;8.70;6.25;;;;;;;;;;5062459;28;20051;-62
2022/04/15 06:18:02;;;;;;;7.80;6.10;;;;;;;;;;5084973;28;20043;-62
2022/04/15 06:20:28;;;;;;;11.23;7.13;;;;;;;;;;5090469;28;20036;-62
2022/04/15 06:22:54;;;;;;;10.52;6.88;;;;;;;;;;5089813;28;20055;-61
2022/04/15 06:25:20;;;;;;;9.82;6.68;;;;;;;;;;5090731;28;20098;-62
2022/04/15 06:27:46;;;;;;;9.25;6.97;;;;;;;;;;5102952;28;20028;-62
2022/04/15 06:30:12;;;;;;;9.05;6.00;;;;;;;;;;5112197;22;20081;-64
2022/04/15 06:32:38;;;;;;;8.90;5.63;;;;;;;;;;5072454;28;20032;-65
2022/04/15 06:35:05;;;;;;;9.25;5.38;;;;;;;;;;5093273;28;20419;-64
2022/04/15 06:37:31;;;;;;;12.45;5.82;;;;;;;;;;5087764;28;20044;-64
2022/04/15 06:39:57;;;;;;;6.97;5.82;;;;;;;;;;5082447;28;20044;-64
2022/04/15 06:42:23;;;;;;;7.47;5.50;;;;;;;;;;5071934;28;20125;-64
2022/04/15 06:44:49;;;;;;;8.32;6.28;;;;;;;;;;5065241;28;20446;-64
2022/04/15 06:47:16;;;;;;;9.88;6.38;;;;;;;;;;5069783;28;20072;-63
2022/04/15 06:49:42;;;;;;;11.20;6.63;;;;;;;;;;5072854;28;20041;-63
2022/04/15 06:52:08;;;;;;;8.20;6.20;;;;;;;;;;5046445;28;20044;-63
2022/04/15 06:54:34;;;;;;;9.38;6.32;;;;;;;;;;5068188;28;20043;-64
2022/04/15 06:57:00;;;;;;;8.13;6.55;;;;;;;;;;5067803;28;20422;-63
2022/04/15 06:59:26;;;;;;;9.32;6.57;;;;;;;;;;5070811;28;20083;-63
2022/04/15 07:01:54;;;;;;;9.40;6.53;;;;;;;;;;5071213;28;20041;-63
2022/04/15 07:04:21;;;;;;;8.57;6.45;;;;;;;;;;5071428;28;20044;-63
2022/04/15 07:06:47;;;;;;;11.48;7.15;;;;;;;;;;5065878;28;20043;-63
2022/04/15 07:09:13;;;;;;;8.27;6.28;;;;;;;;;;5068754;28;20048;-63
2022/04/15 07:11:39;;;;;;;9.63;6.97;;;;;;;;;;5070858;28;20449;-64
2022/04/15 07:14:05;;;;;;;12.32;6.68;;;;;;;;;;5072189;28;20098;-64
2022/04/15 07:16:31;;;;;;;9.57;6.68;;;;;;;;;;5071015;28;20040;-64
2022/04/15 07:18:57;;;;;;;9.18;6.88;;;;;;;;;;5071740;28;20071;-64
2022/04/15 07:21:24;;;;;;;11.02;6.95;;;;;;;;;;5054006;28;20036;-64
2022/04/15 07:23:50;;;;;;;11.57;7.32;;;;;;;;;;5073657;28;20394;-64
2022/04/15 07:26:16;;;;;;;9.25;7.07;;;;;;;;;;5072875;28;20052;-64
2022/04/15 07:28:42;;;;;;;10.88;7.15;;;;;;;;;;5071291;28;20040;-64
2022/04/15 07:31:08;;;;;;;10.57;6.80;;;;;;;;;;5071334;28;20098;-64
2022/04/15 07:33:34;;;;;;;9.70;6.63;;;;;;;;;;5073090;28;20402;-64
2022/04/15 07:36:03;;;;;;;11.15;7.15;;;;;;;;;;5073046;28;20040;-64
2022/04/15 07:38:29;;;;;;;12.20;7.38;;;;;;;;;;5052942;28;20159;-64
2022/04/15 07:40:55;;;;;;;13.13;8.50;;;;;;;;;;5072434;28;20131;-64
2022/04/15 07:43:21;;;;;;;12.40;7.70;;;;;;;;;;5073129;28;20044;-64
2022/04/15 07:45:47;;;;;;;15.20;8.98;;;;;;;;;;5071040;28;20509;-64
2022/04/15 07:48:13;;;;;;;14.98;9.43;;;;;;;;;;5071414;28;20442;-64
2022/04/15 07:50:39;;;;;;;13.70;9.05;;;;;;;;;;5071873;28;20064;-64
2022/04/15 07:53:05;;;;;;;13.18;8.55;;;;;;;;;;5071580;28;20048;-64
2022/04/15 07:55:32;;;;;;;16.85;9.90;;;;;;;;;;5070168;28;20028;-64
2022/04/15 07:57:58;;;;;;;15.77;9.63;;;;;;;;;;5072000;28;20405;-64
2022/04/15 08:00:24;;;;;;;16.40;9.73;;;;;;;;;;5070683;28;20107;-64
2022/04/15 08:02:50;;;;;;;12.93;8.85;;;;;;;;;;5070599;28;20082;-64
2022/04/15 08:05:16;;;;;;;18.83;10.20;;;;;;;;;;5052200;28;20036;-64
2022/04/15 08:07:42;;;;;;;18.80;10.15;;;;;;;;;;5050510;28;20067;-64
2022/04/15 08:10:09;;;;;;;19.75;10.93;;;;;;;;;;5070773;28;20037;-64
2022/04/15 08:12:35;;;;;;;16.95;10.48;;;;;;;;;;5070436;28;20485;-64
2022/04/15 08:15:03;;;;;;;17.95;10.60;;;;;;;;;;5052933;28;20043;-64
2022/04/15 08:17:29;;;;;;;19.25;10.75;;;;;;;;;;5063414;28;20107;-64
2022/04/15 08:19:55;;;;;;;16.10;10.27;;;;;;;;;;5070717;28;20483;-64
2022/04/15 08:22:21;;;;;;;24.73;11.77;;;;;;;;;;5053430;28;20087;-64
2022/04/15 08:24:47;;;;;;;21.35;11.32;;;;;;;;;;5070804;28;20097;-64
2022/04/15 08:27:13;;;;;;;20.45;11.25;;;;;;;;;;5052167;28;20428;-64
2022/04/15 08:29:39;;;;;;;19.73;11.07;;;;;;;;;;5070039;28;20086;-64
2022/04/15 08:32:11;;;;;;;18.92;11.05;;;;;;;;;;5070843;28;20033;-64
2022/04/15 08:34:37;;;;;;;19.95;11.50;;;;;;;;;;5068694;28;20036;-64
2022/04/15 08:37:03;;;;;;;19.38;11.10;;;;;;;;;;5070847;28;20082;-64
2022/04/15 08:39:29;;;;;;;21.13;11.40;;;;;;;;;;5071033;28;20040;-64
2022/04/15 08:41:57;;;;;;;21.42;10.85;;;;;;;;;;5062978;28;20119;-64
2022/04/15 08:44:24;;;;;;;19.02;11.15;;;;;;;;;;5070470;28;20433;-64
2022/04/15 08:46:50;;;;;;;18.52;10.60;;;;;;;;;;5054003;28;20059;-64
2022/04/15 08:49:19;;;;;;;19.40;11.60;;;;;;;;;;5071753;28;20048;-64
2022/04/15 08:51:47;;;;;;;20.10;11.35;;;;;;;;;;5050197;28;20123;-64
2022/04/15 08:54:13;;;;;;;17.75;11.15;;;;;;;;;;5052541;28;20374;-64
2022/04/15 08:56:39;;;;;;;16.73;11.23;;;;;;;;;;5069043;28;20090;-64
2022/04/15 08:59:06;;;;;;;23.25;11.57;;;;;;;;;;5070007;28;20047;-64
2022/04/15 09:01:33;;;;;;;23.60;11.70;;;;;;;;;;5069850;28;20040;-64
2022/04/15 09:04:00;;;;;;;20.75;12.00;;;;;;;;;;5071450;28;20106;-64
2022/04/15 09:06:31;;;;;;;22.92;11.00;;;;;;;;;;5071141;28;20036;-64
2022/04/15 09:09:00;;;;;;;19.20;11.65;;;;;;;;;;5068112;28;20432;-64
2022/04/15 09:11:33;;;;;;;18.35;11.35;;;;;;;;;;5061640;28;20119;-64
2022/04/15 09:14:02;;;;;;;17.83;10.60;;;;;;;;;;5067175;28;20036;-64
2022/04/15 09:16:28;;;;;;;17.20;10.70;;;;;;;;;;5061171;28;20512;-64
2022/04/15 09:18:55;;;;;;;20.67;11.20;;;;;;;;;;5065731;28;20079;-64
2022/04/15 09:21:21;;;;;;;18.92;10.35;;;;;;;;;;5070543;28;20518;-64
2022/04/15 09:23:52;;;;;;;15.38;10.25;;;;;;;;;;5070595;28;20032;-64
2022/04/15 09:26:18;;;;;;;19.83;10.55;;;;;;;;;;5067112;28;20040;-64
2022/04/15 09:28:44;;;;;;;18.23;10.50;;;;;;;;;;5065400;28;20055;-64
2022/04/15 09:31:13;;;;;;;19.70;10.27;;;;;;;;;;5060953;28;20131;-64
2022/04/15 09:33:39;;;;;;;16.92;9.45;;;;;;;;;;5066211;28;20039;-64
2022/04/15 09:36:05;;;;;;;16.50;10.18;;;;;;;;;;5052644;28;20044;-64
2022/04/15 09:38:44;;;;;;;20.23;10.27;;;;;;;;;;5053194;28;20486;-64
2022/04/15 09:41:20;;;;;;;17.83;9.80;;;;;;;;;;5071207;28;20070;-64
2022/04/15 09:43:53;;;;;;;20.85;10.38;;;;;;;;;;5066116;28;20036;-64
2022/04/15 09:46:20;;;;;;;16.77;9.77;;;;;;;;;;5072399;28;20498;-61
2022/04/15 09:48:58;;;;;;;16.83;9.60;;;;;;;;;;5069189;28;20048;-62
2022/04/15 09:51:24;;;;;;;12.40;8.13;;;;;;;;;;5064931;28;20033;-62
2022/04/15 09:53:55;;;;;;;15.30;8.38;;;;;;;;;;5071545;28;20033;-63
2022/04/15 09:56:23;;;;;;;14.43;7.82;;;;;;;;;;5073821;28;20126;-63
2022/04/15 09:58:54;;;;;;;13.10;7.32;;;;;;;;;;5071969;28;20044;-63
2022/04/15 10:01:20;;;;;;;15.93;7.77;;;;;;;;;;5074835;28;20052;-63
2022/04/15 10:03:48;;;;;;;13.02;7.57;;;;;;;;;;5054833;28;20439;-63
2022/04/15 10:06:15;;;;;;;16.25;8.35;;;;;;;;;;5072037;28;20047;-63
2022/04/15 10:08:42;;;;;;;12.05;7.50;;;;;;;;;;5073166;28;20041;-63
2022/04/15 10:11:09;;;;;;;9.40;6.60;;;;;;;;;;5067995;28;20050;-63
2022/04/15 10:13:36;;;;;;;10.40;6.97;;;;;;;;;;5072847;28;20078;-63
2022/04/15 10:16:02;;;;;;;9.57;6.07;;;;;;;;;;5073770;28;20033;-63
2022/04/15 10:18:29;;;;;;;10.60;6.55;;;;;;;;;;5068440;28;20128;-63
2022/04/15 10:20:55;;;;;;;12.38;7.15;;;;;;;;;;5050964;28;20094;-64
2022/04/15 10:23:22;;;;;;;11.38;7.18;;;;;;;;;;5072182;28;20032;-63
2022/04/15 10:25:50;;;;;;;13.73;6.95;;;;;;;;;;5052702;28;20486;-63
2022/04/15 10:28:20;;;;;;;12.00;6.97;;;;;;;;;;5070149;28;20036;-63
2022/04/15 10:31:04;;;;;;;12.95;7.20;;;;;;;;;;5072089;28;20033;-64
2022/04/15 10:33:31;;;;;;;12.00;7.82;;;;;;;;;;5054049;28;20131;-64
2022/04/15 10:36:17;;;;;;;9.10;6.55;;;;;;;;;;5055521;28;20543;-63
2022/04/15 10:39:02;;;;;;;10.95;7.10;;;;;;;;;;5071819;28;20036;-63
2022/04/15 10:41:29;;;;;;;9.27;6.40;;;;;;;;;;5072484;28;20453;-63
2022/04/15 10:43:55;;;;;;;13.40;6.45;;;;;;;;;;5051353;28;20067;-63
2022/04/15 10:46:28;;;;;;;10.13;6.82;;;;;;;;;;5070970;28;20040;-62
2022/04/15 10:48:57;;;;;;;11.32;5.93;;;;;;;;;;5072227;28;20067;-62
2022/04/15 10:51:29;;;;;;;10.68;6.25;;;;;;;;;;5069527;28;20083;-62
2022/04/15 10:53:56;;;;;;;11.75;6.70;;;;;;;;;;5068818;28;20051;-63
2022/04/15 10:56:24;;;;;;;11.68;6.68;;;;;;;;;;5054456;28;20128;-62
2022/04/15 11:01:50;;;;;;;9.48;6.53;;;;;;;;;;5066546;28;20502;-62
2022/04/15 11:04:21;;;;;;;11.02;6.90;;;;;;;;;;5073723;28;20075;-62
2022/04/15 11:06:47;;;;;;;11.27;6.82;;;;;;;;;;5071503;28;20040;-62
2022/04/15 11:09:16;;;;;;;11.00;7.22;;;;;;;;;;5046765;28;20564;-62
2022/04/15 11:11:45;;;;;;;10.27;6.75;;;;;;;;;;5071367;28;20124;-62
2022/04/15 11:14:14;;;;;;;14.65;7.25;;;;;;;;;;5071329;28;20406;-62
2022/04/15 11:16:40;;;;;;;11.35;6.85;;;;;;;;;;5071612;28;20036;-62
2022/04/15 11:19:07;;;;;;;9.93;7.03;;;;;;;;;;5064821;28;20043;-62
2022/04/15 11:21:36;;;;;;;9.77;6.60;;;;;;;;;;5066652;28;20041;-63
2022/04/15 11:24:06;;;;;;;10.45;6.28;;;;;;;;;;5069122;28;20418;-63
2022/04/15 11:26:33;;;;;;;10.70;7.45;;;;;;;;;;5071012;28;20079;-63
2022/04/15 11:29:00;;;;;;;11.27;6.90;;;;;;;;;;5069289;28;20043;-63
2022/04/15 11:31:26;;;;;;;11.38;7.07;;;;;;;;;;5067452;28;20047;-63
2022/04/15 11:33:52;;;;;;;12.40;6.88;;;;;;;;;;5068492;28;20033;-63
2022/04/15 11:36:18;;;;;;;12.82;7.90;;;;;;;;;;5073291;28;20040;-63
2022/04/15 11:38:45;;;;;;;11.77;7.18;;;;;;;;;;5072904;28;20059;-63
2022/04/15 11:41:15;;;;;;;11.10;7.13;;;;;;;;;;5070775;28;20119;-63
2022/04/15 11:43:41;;;;;;;10.43;7.33;;;;;;;;;;5046280;28;20076;-63
2022/04/15 11:46:08;;;;;;;10.57;7.38;;;;;;;;;;5054318;28;20302;-63
2022/04/15 11:48:35;;;;;;;12.63;8.10;;;;;;;;;;5053176;28;20051;-63
2022/04/15 11:51:01;;;;;;;13.13;7.45;;;;;;;;;;5070639;28;20044;-63
2022/04/15 11:53:27;;;;;;;12.52;7.88;;;;;;;;;;5072207;28;20500;-63
2022/04/15 11:55:54;;;;;;;10.43;7.30;;;;;;;;;;5072429;28;20071;-63
2022/04/15 11:58:21;;;;;;;12.70;7.38;;;;;;;;;;5069776;28;20490;-63
2022/04/15 12:00:57;;;;;;;12.32;7.18;;;;;;;;;;5070257;28;20044;-63
2022/04/15 12:03:24;;;;;;;13.43;7.35;;;;;;;;;;5071190;28;20064;-63
2022/04/15 12:05:50;;;;;;;11.95;8.07;;;;;;;;;;5063451;28;20029;-62
2022/04/15 12:08:20;;;;;;;9.82;6.88;;;;;;;;;;5071896;28;20041;-62
2022/04/15 12:10:47;;;;;;;10.25;7.10;;;;;;;;;;5047272;28;20041;-62
2022/04/15 12:13:13;;;;;;;11.57;7.82;;;;;;;;;;5059347;28;20072;-62
2022/04/15 12:15:39;;;;;;;9.32;8.02;;;;;;;;;;5068379;28;20039;-62
2022/04/15 12:18:06;;;;;;;12.00;8.30;;;;;;;;;;5051420;28;20285;-62
2022/04/15 12:20:33;;;;;;;12.77;8.40;;;;;;;;;;5064076;28;20037;-62
2022/04/15 12:22:59;;;;;;;17.15;8.35;;;;;;;;;;5071569;28;20067;-62
2022/04/15 12:25:26;;;;;;;14.13;7.30;;;;;;;;;;5053382;28;20049;-62
2022/04/15 12:27:53;;;;;;;15.68;8.38;;;;;;;;;;5065991;28;20089;-63
2022/04/15 12:30:36;;;;;;;11.10;8.35;;;;;;;;;;5098991;22;20067;-62
2022/04/15 12:33:10;;;;;;;16.30;8.75;;;;;;;;;;5100961;28;20054;-62
2022/04/15 12:35:36;;;;;;;11.40;8.45;;;;;;;;;;5091392;28;20490;-63
2022/04/15 12:38:03;;;;;;;11.88;8.00;;;;;;;;;;5103358;28;20040;-63
2022/04/15 12:40:30;;;;;;;13.43;8.88;;;;;;;;;;5108634;28;20054;-63
2022/04/15 12:42:56;;;;;;;14.85;8.57;;;;;;;;;;5111926;28;20043;-62
2022/04/15 12:45:23;;;;;;;18.70;8.40;;;;;;;;;;5112085;28;20051;-62
2022/04/15 12:48:02;;;;;;;17.83;8.68;;;;;;;;;;5090889;28;20382;-62
2022/04/15 12:50:35;;;;;;;12.70;8.60;;;;;;;;;;5100242;28;20073;-62
2022/04/15 12:53:03;;;;;;;13.20;8.65;;;;;;;;;;5107383;28;20078;-62
2022/04/15 12:55:35;;;;;;;13.30;8.13;;;;;;;;;;5110372;28;20045;-63
2022/04/15 12:58:16;;;;;;;11.05;8.45;;;;;;;;;;5111578;28;20032;-63
2022/04/15 13:00:42;;;;;;;;;;;;;;;;;;5106838;28;20126;-63
2022/04/15 13:03:08;;;;;;;11.60;9.40;;;;;;;;;;5105342;28;19998;-63
2022/04/15 13:05:34;;;;;;;11.07;8.43;;;;;;;;;;5105005;28;20051;-63
2022/04/15 13:08:00;;;;;;;13.50;9.20;;;;;;;;;;5105247;28;20035;-63
2022/04/15 13:10:26;;;;;;;13.75;8.52;;;;;;;;;;5110141;28;20470;-63
2022/04/15 13:12:53;;;;;;;14.38;9.07;;;;;;;;;;5103643;28;21033;-63
2022/04/15 13:15:19;;;;;;;16.10;9.98;;;;;;;;;;5110407;28;20147;-63
2022/04/15 13:17:45;;;;;;;16.95;9.38;;;;;;;;;;5093521;28;20508;-63
2022/04/15 13:20:12;;;;;;;17.30;9.68;;;;;;;;;;5108768;28;20137;-63
2022/04/15 13:22:39;;;;;;;14.25;9.50;;;;;;;;;;5107760;28;20054;-63
2022/04/15 13:25:05;;;;;;;16.05;9.57;;;;;;;;;;5110287;28;20043;-63
2022/04/15 13:27:31;;;;;;;13.32;8.77;;;;;;;;;;5108534;28;20086;-63
2022/04/15 13:29:58;;;;;;;11.18;8.60;;;;;;;;;;5104440;28;20132;-63
2022/04/15 13:32:24;;;;;;;13.57;8.98;;;;;;;;;;5101024;28;20040;-63
2022/04/15 13:34:50;;;;;;;14.02;9.50;;;;;;;;;;5102873;28;20115;-63
2022/04/15 13:37:16;;;;;;;16.13;9.95;;;;;;;;;;5107273;28;20123;-63
2022/04/15 13:39:42;;;;;;;15.05;9.02;;;;;;;;;;5104822;28;20067;-63
2022/04/15 13:42:10;;;;;;;13.80;9.00;;;;;;;;;;5103345;28;20144;-63
2022/04/15 13:44:36;;;;;;;14.05;9.27;;;;;;;;;;5100828;28;20043;-63
2022/04/15 13:47:06;;;;;;;14.63;8.85;;;;;;;;;;5107656;28;20509;-62
2022/04/15 13:49:35;;;;;;;14.73;8.63;;;;;;;;;;5106533;28;20445;-62
2022/04/15 13:56:34;;;;;;;12.45;8.38;;;;;;;;;;5108552;28;20036;-63
2022/04/15 13:57:32;;;;;;;11.77;8.25;;;;;;;;;;5109775;28;20043;-63
2022/04/15 14:00:02;;;;;;;11.63;7.82;;;;;;;;;;5103255;28;20048;-63
2022/04/15 14:02:28;;;;;;;12.13;8.80;;;;;;;;;;5102951;28;20047;-62
2022/04/15 14:04:54;;;;;;;10.60;7.70;;;;;;;;;;5106121;28;21625;-63
2022/04/15 14:07:20;;;;;;;10.43;8.00;;;;;;;;;;5109186;28;20058;-62
2022/04/15 14:09:46;;;;;;;12.15;8.00;;;;;;;;;;5109478;28;20163;-63
2022/04/15 14:12:12;;;;;;;9.48;7.63;;;;;;;;;;5110244;28;20032;-63
2022/04/15 14:14:38;;;;;;;11.45;8.23;;;;;;;;;;5109800;28;20035;-62
2022/04/15 14:17:05;;;;;;;9.68;7.85;;;;;;;;;;5111577;28;20389;-62
2022/04/15 14:19:31;;;;;;;12.13;7.40;;;;;;;;;;5107807;28;20047;-62
2022/04/15 14:21:57;;;;;;;9.75;8.02;;;;;;;;;;5111598;28;20112;-62
2022/04/15 14:24:23;;;;;;;12.32;8.10;;;;;;;;;;5113071;28;20039;-63
2022/04/15 14:26:49;;;;;;;12.93;8.00;;;;;;;;;;5114530;28;20400;-62
2022/04/15 14:29:15;;;;;;;12.63;7.95;;;;;;;;;;5113786;28;20050;-63
2022/04/15 14:31:41;;;;;;;11.38;8.35;;;;;;;;;;5109296;28;20035;-63
2022/04/15 14:34:07;;;;;;;11.88;8.70;;;;;;;;;;5108678;28;20493;-63
2022/04/15 14:36:33;;;;;;;11.73;9.18;;;;;;;;;;5107707;28;20035;-62